Time;durP1;ratioP1;P1;durP2;ratioP2;P2;SDS_P1;SDS_P2;PMS_P1;PMS_P2;Temp;Humidity;BMP_temperature;BMP_pressure;BME280_temperature;BME280_humidity;BME280_pressure;Samples;Min_cycle;Max_cycle;Signal;HPM_P1;HPM_P2
2023/07/01 00:02:00;;;;;;;11.82;9.20;;;24.30;91.90;;;;;;6212040;28;89168;-76
2023/07/01 00:05:02;;;;;;;10.65;9.55;;;24.30;91.80;;;;;;6192411;28;88786;-77
2023/07/01 00:08:04;;;;;;;10.27;9.23;;;24.30;91.80;;;;;;6193387;28;89095;-76
2023/07/01 00:11:07;;;;;;;9.73;8.82;;;24.30;91.80;;;;;;6191581;28;89160;-75
2023/07/01 00:14:10;;;;;;;10.30;9.35;;;24.30;91.70;;;;;;6191998;28;89994;-76
2023/07/01 00:17:12;;;;;;;10.05;9.10;;;24.30;91.60;;;;;;6206737;28;89116;-76
2023/07/01 00:20:14;;;;;;;10.75;9.35;;;24.30;91.50;;;;;;6196185;28;89039;-77
2023/07/01 00:23:16;;;;;;;10.27;9.18;;;24.30;91.40;;;;;;6193077;28;89159;-76
2023/07/01 00:26:18;;;;;;;9.52;8.57;;;24.30;91.50;;;;;;6198919;28;89005;-76
2023/07/01 00:29:22;;;;;;;10.00;9.02;;;24.30;91.60;;;;;;6199041;28;89250;-75
2023/07/01 00:32:24;;;;;;;9.13;8.23;;;24.30;91.70;;;;;;6197201;28;89483;-75
2023/07/01 00:35:26;;;;;;;9.65;8.65;;;24.30;91.80;;;;;;6210267;28;88718;-76
2023/07/01 00:38:28;;;;;;;9.73;8.73;;;24.40;91.90;;;;;;6216402;28;89079;-76
2023/07/01 00:41:30;;;;;;;9.52;8.65;;;24.30;92.10;;;;;;6201399;28;89108;-76
2023/07/01 00:44:33;;;;;;;9.65;8.65;;;24.40;92.20;;;;;;6193960;28;90047;-76
2023/07/01 00:47:36;;;;;;;9.20;8.30;;;24.30;92.20;;;;;;6206774;28;89056;-75
2023/07/01 00:50:37;;;;;;;10.27;8.85;;;24.30;92.50;;;;;;6210555;28;89165;-76
2023/07/01 00:53:40;;;;;;;9.73;8.38;;;24.30;92.90;;;;;;6206390;28;89453;-74
2023/07/01 00:56:42;;;;;;;9.57;8.52;;;24.40;93.30;;;;;;6193190;28;89348;-76
2023/07/01 00:59:46;;;;;;;9.30;8.27;;;24.30;93.10;;;;;;6209547;28;88980;-76
2023/07/01 01:02:54;;;;;;;9.05;8.07;;;24.30;93.00;;;;;;6198145;28;89072;-75
2023/07/01 01:06:04;;;;;;;9.35;8.45;;;24.30;93.00;;;;;;6204422;28;87589;-77
2023/07/01 01:09:11;;;;;;;8.95;8.00;;;24.40;93.20;;;;;;6203520;28;89118;-75
2023/07/01 01:12:14;;;;;;;9.27;8.27;;;24.30;93.10;;;;;;6209380;28;89070;-75
2023/07/01 01:15:18;;;;;;;9.00;8.10;;;24.30;93.10;;;;;;6203888;28;90315;-75
2023/07/01 01:18:22;;;;;;;9.50;8.52;;;24.30;92.90;;;;;;6200650;28;87770;-75
2023/07/01 01:21:26;;;;;;;8.80;8.00;;;24.30;92.90;;;;;;6215271;28;89240;-74
2023/07/01 01:24:34;;;;;;;9.25;8.27;;;24.30;93.60;;;;;;6199698;28;89052;-75
2023/07/01 01:27:39;;;;;;;9.35;8.20;;;24.30;93.70;;;;;;6193711;28;89046;-76
2023/07/01 01:30:41;;;;;;;9.63;8.73;;;24.30;93.80;;;;;;6190911;28;89795;-74
2023/07/01 01:33:43;;;;;;;9.80;8.63;;;24.30;94.00;;;;;;6196076;28;89118;-75
2023/07/01 01:36:52;;;;;;;8.95;8.15;;;24.30;94.10;;;;;;6207506;28;88685;-74
2023/07/01 01:39:57;;;;;;;9.48;8.57;;;24.30;93.90;;;;;;6184032;28;89165;-75
2023/07/01 01:43:08;;;;;;;9.40;8.23;;;24.30;93.90;;;;;;6194842;28;87852;-75
2023/07/01 01:46:11;;;;;;;9.20;8.30;;;24.40;94.10;;;;;;6184009;28;90105;-74
2023/07/01 01:49:14;;;;;;;9.13;8.23;;;24.40;94.00;;;;;;6185042;28;89151;-75
2023/07/01 01:52:18;;;;;;;9.40;7.82;;;24.30;94.00;;;;;;6201392;28;89248;-75
2023/07/01 01:55:22;;;;;;;11.82;8.98;;;24.30;94.60;;;;;;6206063;28;89053;-75
2023/07/01 01:58:26;;;;;;;11.35;8.70;;;24.30;94.80;;;;;;6197241;28;89326;-76
2023/07/01 02:01:28;;;;;;;9.55;8.55;;;24.30;94.70;;;;;;6200741;28;89578;-75
2023/07/01 02:04:30;;;;;;;9.98;8.40;;;24.30;94.60;;;;;;6192797;28;89196;-76
2023/07/01 02:07:32;;;;;;;9.82;8.82;;;24.40;94.70;;;;;;6199416;28;88878;-78
2023/07/01 02:10:34;;;;;;;11.20;9.35;;;24.30;94.70;;;;;;6192583;28;87874;-77
2023/07/01 02:13:37;;;;;;;11.68;9.85;;;24.40;95.00;;;;;;6205745;28;89068;-78
2023/07/01 02:16:40;;;;;;;12.20;10.90;;;24.40;95.20;;;;;;6203415;28;90469;-77
2023/07/01 02:19:42;;;;;;;12.95;10.65;;;24.40;95.50;;;;;;6205183;28;89641;-78
2023/07/01 02:22:44;;;;;;;12.00;10.68;;;24.40;95.50;;;;;;6204324;28;89029;-76
2023/07/01 02:25:46;;;;;;;12.88;11.48;;;24.40;95.80;;;;;;6204851;28;89062;-78
2023/07/01 02:28:49;;;;;;;13.57;12.18;;;24.40;96.20;;;;;;6208294;28;89047;-75
2023/07/01 02:31:52;;;;;;;16.13;13.18;;;24.40;96.30;;;;;;6201752;28;89246;-75
2023/07/01 02:34:54;;;;;;;14.82;12.65;;;24.30;96.20;;;;;;6200146;28;89430;-76
2023/07/01 02:37:56;;;;;;;14.38;12.77;;;24.40;96.50;;;;;;6197857;28;88424;-76
2023/07/01 02:40:58;;;;;;;14.38;12.88;;;24.40;96.40;;;;;;6211764;28;87985;-76
2023/07/01 02:44:01;;;;;;;14.90;13.40;;;24.40;96.60;;;;;;6204280;28;89160;-76
2023/07/01 02:47:03;;;;;;;16.17;13.05;;;24.30;96.60;;;;;;6205246;28;91473;-74
2023/07/01 02:50:06;;;;;;;15.02;12.57;;;24.30;96.50;;;;;;6190749;28;89572;-76
2023/07/01 02:53:08;;;;;;;15.88;13.45;;;24.30;96.20;;;;;;6202228;28;89387;-76
2023/07/01 02:56:10;;;;;;;15.57;13.43;;;24.40;96.40;;;;;;6203397;28;89326;-76
2023/07/01 02:59:14;;;;;;;15.18;13.57;;;24.30;96.40;;;;;;6204867;28;89393;-75
2023/07/01 03:02:16;;;;;;;15.52;13.43;;;24.40;96.50;;;;;;6210098;28;89002;-76
2023/07/01 03:05:20;;;;;;;16.20;14.20;;;24.30;96.40;;;;;;6187716;28;89129;-77
2023/07/01 03:08:23;;;;;;;15.80;14.20;;;24.30;96.60;;;;;;6202859;28;88740;-77
2023/07/01 03:11:25;;;;;;;16.60;14.40;;;24.30;96.80;;;;;;6199816;28;89373;-77
2023/07/01 03:14:28;;;;;;;17.33;14.30;;;24.30;97.10;;;;;;6200663;28;89100;-76
2023/07/01 03:17:30;;;;;;;16.58;14.50;;;24.30;97.50;;;;;;6196273;28;89992;-75
2023/07/01 03:20:32;;;;;;;18.58;15.35;;;24.30;97.80;;;;;;6209987;28;87963;-77
2023/07/01 03:23:34;;;;;;;19.15;15.90;;;24.40;98.00;;;;;;6215110;28;89216;-76
2023/07/01 03:26:36;;;;;;;17.20;15.40;;;24.30;98.10;;;;;;6199381;28;89170;-76
2023/07/01 03:29:40;;;;;;;16.85;14.77;;;24.40;98.50;;;;;;6209138;28;89139;-75
2023/07/01 03:32:42;;;;;;;16.95;15.15;;;24.40;98.20;;;;;;6201606;28;89280;-75
2023/07/01 03:35:44;;;;;;;19.85;15.23;;;24.30;98.50;;;;;;6205932;28;89196;-74
2023/07/01 03:38:46;;;;;;;18.90;16.27;;;24.30;98.70;;;;;;6201215;28;88410;-74
2023/07/01 03:41:48;;;;;;;17.35;15.40;;;24.40;98.70;;;;;;6184370;28;89086;-75
2023/07/01 03:44:52;;;;;;;16.73;15.02;;;24.30;98.70;;;;;;6195126;28;89190;-75
2023/07/01 03:47:54;;;;;;;16.70;14.90;;;24.30;98.70;;;;;;6204628;28;90146;-74
2023/07/01 03:50:56;;;;;;;18.15;15.43;;;24.30;98.40;;;;;;6198394;28;89077;-75
2023/07/01 03:53:58;;;;;;;17.08;14.48;;;24.30;98.30;;;;;;6204072;28;89554;-74
2023/07/01 03:57:00;;;;;;;17.25;15.38;;;24.30;98.40;;;;;;6188172;28;89141;-75
2023/07/01 04:00:08;;;;;;;18.08;15.88;;;24.30;98.60;;;;;;6203061;28;89023;-74
2023/07/01 04:03:10;;;;;;;16.80;15.02;;;24.30;98.80;;;;;;6198216;28;89411;-75
2023/07/01 04:06:12;;;;;;;18.10;15.30;;;24.30;99.00;;;;;;6194824;28;88215;-75
2023/07/01 04:09:14;;;;;;;17.40;15.48;;;24.30;99.10;;;;;;6212885;28;88481;-75
2023/07/01 04:12:16;;;;;;;17.00;15.20;;;24.30;99.40;;;;;;6194551;28;89440;-76
2023/07/01 04:15:19;;;;;;;17.33;15.25;;;24.30;99.40;;;;;;6205478;28;89092;-75
2023/07/01 04:18:21;;;;;;;18.08;15.77;;;24.30;99.40;;;;;;6206031;28;90005;-75
2023/07/01 04:21:23;;;;;;;17.63;15.82;;;24.30;99.30;;;;;;6205619;28;89011;-76
2023/07/01 04:24:25;;;;;;;17.48;15.60;;;24.30;99.20;;;;;;6192751;28;89468;-75
2023/07/01 04:27:27;;;;;;;17.25;15.40;;;24.30;99.20;;;;;;6203741;28;89251;-77
2023/07/01 04:30:31;;;;;;;16.23;14.52;;;24.30;99.20;;;;;;6206560;28;87956;-75
2023/07/01 04:33:33;;;;;;;17.33;15.52;;;24.30;99.20;;;;;;6187380;28;89070;-76
2023/07/01 04:36:35;;;;;;;16.73;14.93;;;24.30;99.30;;;;;;6201955;28;87904;-75
2023/07/01 04:39:36;;;;;;;17.13;14.85;;;24.30;99.20;;;;;;6197477;28;88368;-76
2023/07/01 04:42:46;;;;;;;16.55;14.85;;;24.30;99.50;;;;;;6200854;28;89183;-76
2023/07/01 04:45:49;;;;;;;17.45;15.18;;;24.30;99.00;;;;;;6212368;28;89107;-75
2023/07/01 04:48:52;;;;;;;17.08;15.27;;;24.30;99.20;;;;;;6203785;28;89769;-75
2023/07/01 04:51:54;;;;;;;17.08;14.82;;;24.30;99.30;;;;;;6194307;28;89110;-75
2023/07/01 04:54:56;;;;;;;17.48;14.15;;;24.30;99.30;;;;;;6203841;28;89089;-75
2023/07/01 04:57:58;;;;;;;17.45;15.05;;;24.30;99.20;;;;;;6213932;28;89056;-76
2023/07/01 05:01:01;;;;;;;16.50;14.82;;;24.30;99.40;;;;;;6207050;28;89114;-75
2023/07/01 05:04:04;;;;;;;16.13;14.43;;;24.30;99.40;;;;;;6192431;28;89092;-75
2023/07/01 05:07:06;;;;;;;15.27;13.68;;;24.30;99.30;;;;;;6200077;28;89209;-76
2023/07/01 05:10:09;;;;;;;15.68;13.98;;;24.30;99.10;;;;;;6196974;28;88317;-75
2023/07/01 05:13:11;;;;;;;15.80;14.10;;;24.30;99.10;;;;;;6185291;28;89216;-74
2023/07/01 05:16:14;;;;;;;16.42;14.27;;;24.30;99.10;;;;;;6180769;28;90697;-74
2023/07/01 05:19:16;;;;;;;17.52;14.25;;;24.30;99.00;;;;;;6184076;28;90312;-76
2023/07/01 05:22:18;;;;;;;15.75;14.00;;;24.30;98.80;;;;;;6200478;28;89004;-76
2023/07/01 05:25:20;;;;;;;15.82;13.93;;;24.30;99.00;;;;;;6181506;28;89838;-74
2023/07/01 05:28:22;;;;;;;16.02;14.43;;;24.20;99.00;;;;;;6193295;28;89637;-74
2023/07/01 05:31:25;;;;;;;15.13;13.52;;;24.30;99.20;;;;;;6207977;28;89056;-75
2023/07/01 05:34:27;;;;;;;15.25;13.75;;;24.30;99.20;;;;;;6200649;28;89451;-76
2023/07/01 05:37:30;;;;;;;15.38;13.70;;;24.30;99.30;;;;;;6203827;28;89053;-75
2023/07/01 05:40:32;;;;;;;16.45;13.55;;;24.30;99.20;;;;;;6187603;28;88323;-75
2023/07/01 05:43:34;;;;;;;15.18;13.65;;;24.30;99.40;;;;;;6195559;28;89213;-75
2023/07/01 05:46:38;;;;;;;15.00;13.40;;;24.30;99.60;;;;;;6208183;28;89045;-75
2023/07/01 05:49:40;;;;;;;15.73;13.77;;;24.30;99.60;;;;;;6195487;28;90032;-74
2023/07/01 05:52:42;;;;;;;15.85;14.18;;;24.30;99.60;;;;;;6193041;28;89054;-75
2023/07/01 05:55:44;;;;;;;14.98;13.27;;;24.30;99.80;;;;;;6192946;28;89033;-74
2023/07/01 05:58:46;;;;;;;14.98;13.38;;;24.30;99.80;;;;;;6198282;28;88196;-75
2023/07/01 06:01:50;;;;;;;15.88;14.05;;;24.20;99.60;;;;;;6190779;28;89206;-72
2023/07/01 06:04:52;;;;;;;15.73;13.93;;;24.30;99.50;;;;;;6192028;28;90149;-72
2023/07/01 06:07:53;;;;;;;14.95;13.10;;;24.30;99.60;;;;;;6194199;28;89105;-72
2023/07/01 06:10:55;;;;;;;15.18;13.60;;;24.30;99.50;;;;;;6196054;28;88558;-72
2023/07/01 06:13:57;;;;;;;15.93;13.77;;;24.30;99.40;;;;;;6204146;28;89003;-73
2023/07/01 06:17:01;;;;;;;14.10;12.73;;;24.30;99.80;;;;;;6191841;28;89146;-72
2023/07/01 06:20:03;;;;;;;15.80;14.07;;;24.30;99.30;;;;;;6199504;28;90072;-72
2023/07/01 06:23:05;;;;;;;15.90;14.20;;;24.30;99.40;;;;;;6204037;28;87890;-73
2023/07/01 06:26:07;;;;;;;14.90;13.40;;;24.30;99.20;;;;;;6187749;28;89031;-73
2023/07/01 06:29:10;;;;;;;15.45;13.38;;;24.20;99.30;;;;;;6203176;28;89145;-73
2023/07/01 06:32:13;;;;;;;15.57;13.93;;;24.20;99.20;;;;;;6203528;28;89601;-73
2023/07/01 06:35:15;;;;;;;15.15;13.52;;;24.30;99.00;;;;;;6205384;28;89007;-73
2023/07/01 06:38:17;;;;;;;16.02;13.70;;;24.30;98.90;;;;;;6186156;28;89436;-71
2023/07/01 06:41:19;;;;;;;14.68;13.18;;;24.20;99.00;;;;;;6180913;28;88417;-72
2023/07/01 06:44:21;;;;;;;14.57;13.07;;;24.20;99.10;;;;;;6187539;28;89393;-72
2023/07/01 06:47:24;;;;;;;15.27;13.68;;;24.20;99.10;;;;;;6206848;28;89182;-72
2023/07/01 06:50:26;;;;;;;14.27;12.77;;;24.30;99.20;;;;;;6192354;28;89147;-72
2023/07/01 06:53:28;;;;;;;15.00;13.50;;;24.30;99.20;;;;;;6197544;28;89045;-72
2023/07/01 06:56:30;;;;;;;16.10;13.38;;;24.30;99.30;;;;;;6180759;28;88974;-72
2023/07/01 06:59:32;;;;;;;14.80;13.30;;;24.30;99.30;;;;;;6201902;28;89043;-72
2023/07/01 07:02:36;;;;;;;14.35;12.82;;;24.30;99.30;;;;;;6205480;28;89007;-72
2023/07/01 07:05:38;;;;;;;15.48;12.75;;;24.30;99.40;;;;;;6197962;28;87890;-73
2023/07/01 07:08:39;;;;;;;14.48;12.98;;;24.30;99.30;;;;;;6201563;28;88963;-72
2023/07/01 07:11:42;;;;;;;14.43;12.93;;;24.30;99.40;;;;;;6209061;28;88384;-72
2023/07/01 07:14:43;;;;;;;13.93;12.45;;;24.30;99.40;;;;;;6212791;28;89132;-71
2023/07/01 07:17:47;;;;;;;14.02;12.52;;;24.30;99.40;;;;;;6207940;28;89052;-72
2023/07/01 07:20:49;;;;;;;14.32;12.63;;;24.30;99.40;;;;;;6191778;28;90114;-73
2023/07/01 07:23:51;;;;;;;13.55;11.65;;;24.30;99.20;;;;;;6193077;28;89066;-73
2023/07/01 07:26:57;;;;;;;13.07;11.77;;;24.30;99.10;;;;;;6198902;28;89048;-72
2023/07/01 07:29:59;;;;;;;12.40;11.20;;;24.20;98.80;;;;;;6202949;28;87955;-71
2023/07/01 07:33:03;;;;;;;12.90;11.60;;;24.30;98.40;;;;;;6214987;28;89120;-71
2023/07/01 07:36:05;;;;;;;12.73;11.43;;;24.20;98.20;;;;;;6205594;28;89075;-72
2023/07/01 07:39:08;;;;;;;12.95;11.60;;;24.30;98.20;;;;;;6191992;28;89416;-71
2023/07/01 07:42:10;;;;;;;12.32;10.98;;;24.30;98.20;;;;;;6192511;28;88533;-71
2023/07/01 07:45:17;;;;;;;13.00;11.52;;;24.20;98.10;;;;;;6195552;28;89180;-71
2023/07/01 07:48:20;;;;;;;12.10;10.60;;;24.20;98.10;;;;;;6196176;28;89076;-70
2023/07/01 07:51:22;;;;;;;13.55;12.15;;;24.20;98.00;;;;;;6215523;28;90903;-71
2023/07/01 07:54:24;;;;;;;11.63;10.43;;;24.30;97.90;;;;;;6191243;28;89334;-72
2023/07/01 07:57:26;;;;;;;13.02;10.88;;;24.30;97.60;;;;;;6184776;28;89169;-71
2023/07/01 08:00:28;;;;;;;12.68;10.48;;;24.20;97.40;;;;;;6206270;28;88926;-72
2023/07/01 08:03:32;;;;;;;11.57;10.45;;;24.20;97.20;;;;;;6203452;28;89135;-72
2023/07/01 08:06:33;;;;;;;11.73;10.40;;;24.20;97.20;;;;;;6197222;28;89154;-72
2023/07/01 08:09:37;;;;;;;11.95;10.75;;;24.20;97.20;;;;;;6195778;28;89053;-72
2023/07/01 08:12:39;;;;;;;12.02;10.73;;;24.30;99.40;;;;;;6186934;28;88344;-72
2023/07/01 08:15:43;;;;;;;11.48;10.27;;;24.40;99.90;;;;;;6203853;28;89187;-69
2023/07/01 08:18:46;;;;;;;11.40;10.18;;;24.40;99.00;;;;;;6214037;28;89058;-71
2023/07/01 08:21:48;;;;;;;11.02;9.65;;;24.40;98.30;;;;;;6210896;28;90424;-72
2023/07/01 08:24:50;;;;;;;11.38;10.18;;;24.50;98.00;;;;;;6228713;28;89438;-70
2023/07/01 08:27:52;;;;;;;11.10;10.00;;;24.50;97.20;;;;;;6202294;28;89025;-70
2023/07/01 08:30:54;;;;;;;11.40;10.20;;;24.50;96.80;;;;;;6207893;28;89420;-70
2023/07/01 08:33:57;;;;;;;10.75;9.57;;;24.40;96.60;;;;;;6220877;28;89245;-71
2023/07/01 08:36:59;;;;;;;11.60;10.40;;;24.50;96.50;;;;;;6204444;28;89536;-70
2023/07/01 08:40:02;;;;;;;10.77;9.68;;;24.50;96.50;;;;;;6195213;28;89012;-70
2023/07/01 08:43:07;;;;;;;10.30;9.30;;;24.40;96.30;;;;;;6195062;28;88548;-71
2023/07/01 08:46:12;;;;;;;10.73;9.70;;;24.40;96.20;;;;;;6211622;28;89360;-70
2023/07/01 08:49:18;;;;;;;10.50;9.40;;;24.40;96.00;;;;;;6207849;28;89341;-70
2023/07/01 08:52:22;;;;;;;10.90;9.80;;;24.40;95.90;;;;;;6198391;28;90009;-71
2023/07/01 08:55:24;;;;;;;10.57;9.57;;;24.40;96.00;;;;;;6194560;28;87979;-70
2023/07/01 08:58:28;;;;;;;9.82;8.82;;;24.40;96.20;;;;;;6183722;28;89097;-71
2023/07/01 09:01:32;;;;;;;10.52;9.48;;;24.50;96.20;;;;;;6199145;28;88955;-70
2023/07/01 09:04:37;;;;;;;10.07;9.07;;;24.40;96.00;;;;;;6188196;28;89075;-71
2023/07/01 09:07:42;;;;;;;10.35;9.27;;;24.40;95.80;;;;;;6211906;28;87951;-72
2023/07/01 09:10:44;;;;;;;10.02;9.02;;;24.40;95.80;;;;;;6208980;28;88997;-72
2023/07/01 09:13:46;;;;;;;10.32;9.23;;;24.40;95.60;;;;;;6204424;28;88600;-71
2023/07/01 09:16:48;;;;;;;9.77;8.88;;;24.40;95.60;;;;;;6205637;28;89089;-72
2023/07/01 09:19:52;;;;;;;10.50;9.20;;;24.50;95.60;;;;;;6201828;28;89409;-72
2023/07/01 09:23:00;;;;;;;10.43;9.32;;;24.40;95.60;;;;;;6185455;28;89259;-70
2023/07/01 09:26:17;;;;;;;9.85;8.85;;;24.50;95.40;;;;;;6188502;28;89369;-71
2023/07/01 09:29:21;;;;;;;10.23;9.13;;;24.40;95.30;;;;;;6190666;28;90360;-71
2023/07/01 09:32:29;;;;;;;9.98;8.98;;;24.40;95.30;;;;;;6203730;28;89202;-71
2023/07/01 09:35:41;;;;;;;10.10;9.10;;;24.40;95.20;;;;;;6206697;28;89446;-71
2023/07/01 09:38:52;;;;;;;11.57;9.25;;;24.40;94.90;;;;;;6215236;28;89222;-71
2023/07/01 09:42:04;;;;;;;10.35;9.32;;;24.40;95.00;;;;;;6205607;28;89003;-71
2023/07/01 09:45:08;;;;;;;10.20;9.05;;;24.40;94.90;;;;;;6212267;28;87482;-71
2023/07/01 09:48:12;;;;;;;10.02;8.48;;;24.40;94.90;;;;;;6215028;28;89324;-71
2023/07/01 09:51:15;;;;;;;9.13;8.23;;;24.40;94.80;;;;;;6199813;28;88254;-71
2023/07/01 09:54:28;;;;;;;9.15;8.25;;;24.40;94.60;;;;;;6214145;28;90449;-71
2023/07/01 09:57:31;;;;;;;8.60;7.70;;;24.40;94.60;;;;;;6204942;28;91013;-71
2023/07/01 10:00:33;;;;;;;9.15;8.02;;;24.40;94.60;;;;;;6208421;28;89223;-70
2023/07/01 10:03:36;;;;;;;9.18;8.23;;;24.40;94.60;;;;;;6202805;28;89214;-71
2023/07/01 10:06:39;;;;;;;9.88;8.02;;;24.30;94.60;;;;;;6209792;28;89287;-70
2023/07/01 10:09:44;;;;;;;9.82;7.63;;;24.40;94.60;;;;;;6201137;28;89184;-71
2023/07/01 10:12:48;;;;;;;10.52;7.88;;;24.40;94.30;;;;;;6195659;28;89288;-69
2023/07/01 10:15:50;;;;;;;10.00;8.05;;;24.40;94.90;;;;;;6212717;28;88402;-69
2023/07/01 10:18:52;;;;;;;10.27;7.18;;;24.40;94.80;;;;;;6191676;28;89075;-71
2023/07/01 10:22:26;;;;;;;10.45;7.78;;;24.40;94.60;;;;;;6196150;28;89059;-70
2023/07/01 10:25:32;;;;;;;9.77;7.85;;;24.40;94.40;;;;;;6188909;28;90091;-71
2023/07/01 10:28:34;;;;;;;10.55;8.38;;;24.40;94.80;;;;;;6202381;28;89071;-69
2023/07/01 10:31:36;;;;;;;10.18;7.25;;;24.40;94.80;;;;;;6213299;28;89058;-68
2023/07/01 10:35:13;;;;;;;11.57;8.05;;;24.40;94.80;;;;;;6200596;28;89131;-67
2023/07/01 10:38:23;;;;;;;8.18;7.38;;;24.40;94.80;;;;;;6204395;28;89103;-68
2023/07/01 10:41:51;;;;;;;11.25;7.97;;;24.40;94.90;;;;;;6189992;28;89047;-68
2023/07/01 10:44:52;;;;;;;8.45;7.55;;;24.50;95.30;;;;;;6205161;28;89099;-67
2023/07/01 10:48:13;;;;;;;8.52;7.63;;;24.50;95.00;;;;;;6230778;28;87227;-68
2023/07/01 10:51:15;;;;;;;10.02;7.57;;;24.50;94.60;;;;;;6200507;28;89051;-67
2023/07/01 10:54:30;;;;;;;9.13;8.13;;;24.50;94.40;;;;;;6199774;28;89113;-69
2023/07/01 10:57:32;;;;;;;9.30;7.90;;;24.50;94.30;;;;;;6203784;28;90074;-68
2023/07/01 11:00:39;;;;;;;8.80;7.90;;;24.50;94.20;;;;;;6205663;28;89165;-68
2023/07/01 11:03:56;;;;;;;8.52;7.72;;;24.50;94.10;;;;;;6200642;28;89463;-69
2023/07/01 11:06:58;;;;;;;8.30;7.50;;;24.50;94.00;;;;;;6215888;28;89006;-68
2023/07/01 11:10:06;;;;;;;8.45;7.25;;;24.50;94.00;;;;;;6205745;28;89081;-69
2023/07/01 11:13:08;;;;;;;8.95;8.05;;;24.50;93.90;;;;;;6217824;28;89392;-71
2023/07/01 11:16:12;;;;;;;13.85;9.73;;;24.50;93.90;;;;;;6198625;28;88035;-71
2023/07/01 11:19:17;;;;;;;10.02;8.57;;;24.50;94.30;;;;;;6204784;28;86484;-71
2023/07/01 11:22:19;;;;;;;10.27;8.40;;;24.50;94.90;;;;;;6193598;28;89066;-71
2023/07/01 11:25:22;;;;;;;9.23;8.25;;;24.50;94.20;;;;;;6192672;28;88776;-71
2023/07/01 11:28:32;;;;;;;11.77;8.57;;;24.60;94.00;;;;;;6203174;28;90112;-71
2023/07/01 11:31:36;;;;;;;11.18;8.50;;;24.60;94.00;;;;;;6209902;28;88307;-72
2023/07/01 11:34:38;;;;;;;10.90;8.75;;;24.60;94.00;;;;;;6204703;28;88850;-71
2023/07/01 11:37:43;;;;;;;10.50;8.45;;;24.60;94.00;;;;;;6203590;28;89049;-71
2023/07/01 11:40:46;;;;;;;10.43;8.75;;;24.60;94.00;;;;;;6196109;28;88845;-71
2023/07/01 11:43:48;;;;;;;9.63;8.48;;;24.60;94.00;;;;;;6199089;28;89028;-71
2023/07/01 11:46:52;;;;;;;9.70;8.70;;;24.60;93.90;;;;;;6208482;28;89175;-71
2023/07/01 11:49:54;;;;;;;10.63;8.65;;;24.60;93.90;;;;;;6194732;28;88490;-70
2023/07/01 11:53:06;;;;;;;10.85;8.50;;;24.60;93.90;;;;;;6197373;28;89119;-71
2023/07/01 11:56:18;;;;;;;8.18;7.35;;;24.60;93.90;;;;;;6198194;28;89023;-71
2023/07/01 11:59:30;;;;;;;9.63;8.63;;;24.60;93.90;;;;;;6207603;28;88873;-71
2023/07/01 12:02:33;;;;;;;9.73;8.45;;;24.60;93.90;;;;;;6205989;28;89304;-71
2023/07/01 12:05:35;;;;;;;8.68;7.75;;;24.50;93.70;;;;;;6214704;28;89116;-71
2023/07/01 12:08:54;;;;;;;8.65;7.75;;;24.60;93.80;;;;;;6197958;28;87948;-71
2023/07/01 12:11:57;;;;;;;9.63;8.30;;;24.60;93.80;;;;;;6208136;28;89077;-70
2023/07/01 12:15:01;;;;;;;9.02;8.05;;;24.60;93.60;;;;;;6196999;28;89566;-69
2023/07/01 12:18:22;;;;;;;10.13;8.02;;;24.50;93.50;;;;;;6211883;28;89102;-69
2023/07/01 12:21:28;;;;;;;9.32;7.85;;;24.50;93.50;;;;;;6192456;28;88466;-70
2023/07/01 12:24:31;;;;;;;8.77;7.88;;;24.50;93.60;;;;;;6190216;28;89348;-69
2023/07/01 12:27:34;;;;;;;11.15;8.02;;;24.50;93.60;;;;;;6196723;28;89149;-69
2023/07/01 12:30:36;;;;;;;8.13;7.32;;;24.50;93.60;;;;;;6218733;28;90068;-68
2023/07/01 12:33:38;;;;;;;7.95;7.00;;;24.50;93.50;;;;;;6218156;28;88987;-69
2023/07/01 12:36:41;;;;;;;8.02;7.22;;;24.60;93.60;;;;;;6206276;28;89011;-71
2023/07/01 12:39:44;;;;;;;15.48;8.00;;;24.60;93.50;;;;;;6194838;28;89044;-70
2023/07/01 12:42:51;;;;;;;12.23;7.70;;;24.60;93.80;;;;;;6196241;28;89166;-71
2023/07/01 12:45:53;;;;;;;9.77;7.75;;;24.60;93.90;;;;;;6198955;28;89053;-70
2023/07/01 12:48:55;;;;;;;12.00;8.00;;;24.60;93.90;;;;;;6195019;28;89036;-71
2023/07/01 12:51:57;;;;;;;7.78;7.07;;;24.60;93.80;;;;;;6189149;28;89696;-70
2023/07/01 12:54:59;;;;;;;9.45;6.97;;;24.60;93.80;;;;;;6213825;28;88006;-70
2023/07/01 12:58:03;;;;;;;8.80;7.18;;;24.60;93.70;;;;;;6216542;28;88948;-70
2023/07/01 13:01:06;;;;;;;8.52;7.43;;;24.60;93.90;;;;;;6210597;28;90264;-70
2023/07/01 13:04:09;;;;;;;8.13;7.32;;;24.60;93.50;;;;;;6205080;28;89051;-70
2023/07/01 13:07:17;;;;;;;8.10;6.90;;;24.50;93.60;;;;;;6210308;28;89218;-70
2023/07/01 13:10:19;;;;;;;8.48;7.28;;;24.60;93.80;;;;;;6194872;28;89284;-70
2023/07/01 13:13:23;;;;;;;8.88;7.82;;;24.60;93.80;;;;;;6203323;28;89103;-70
2023/07/01 13:16:31;;;;;;;7.22;6.53;;;24.50;93.60;;;;;;6209582;28;89177;-70
2023/07/01 13:19:33;;;;;;;7.63;6.80;;;24.50;93.60;;;;;;6186052;28;87887;-70
2023/07/01 13:22:36;;;;;;;6.88;6.13;;;24.50;93.30;;;;;;6208635;28;88388;-70
2023/07/01 13:25:38;;;;;;;6.93;6.20;;;24.50;93.30;;;;;;6202238;28;88919;-70
2023/07/01 13:28:42;;;;;;;7.22;6.53;;;24.50;93.40;;;;;;6207427;28;89070;-70
2023/07/01 13:31:46;;;;;;;7.22;6.53;;;24.50;93.40;;;;;;6203439;28;90036;-70
2023/07/01 13:34:48;;;;;;;8.43;6.18;;;24.50;93.30;;;;;;6209963;28;88983;-71
2023/07/01 13:37:50;;;;;;;6.95;5.85;;;24.50;93.40;;;;;;6211244;28;89134;-70
2023/07/01 13:40:52;;;;;;;6.55;5.93;;;24.60;93.30;;;;;;6222552;28;89091;-71
2023/07/01 13:44:02;;;;;;;6.65;6.07;;;24.50;93.20;;;;;;6219607;28;89334;-70
2023/07/01 13:47:05;;;;;;;7.00;6.25;;;24.50;92.80;;;;;;6206876;28;89039;-70
2023/07/01 13:50:11;;;;;;;6.85;6.15;;;24.50;92.70;;;;;;6202127;28;89089;-70
2023/07/01 13:53:13;;;;;;;6.50;5.90;;;24.50;92.90;;;;;;6209774;28;88281;-70
2023/07/01 13:56:19;;;;;;;6.90;6.20;;;24.50;92.70;;;;;;6196962;28;88938;-70
2023/07/01 13:59:24;;;;;;;6.60;5.95;;;24.50;92.70;;;;;;6202824;28;89205;-70
2023/07/01 14:02:27;;;;;;;6.20;5.60;;;24.50;92.70;;;;;;6194770;28;89991;-70
2023/07/01 14:05:31;;;;;;;6.40;5.75;;;24.50;92.60;;;;;;6228683;28;88033;-71
2023/07/01 14:08:36;;;;;;;6.45;5.70;;;24.50;92.60;;;;;;6203085;28;88010;-70
2023/07/01 14:11:39;;;;;;;6.20;5.60;;;24.50;92.30;;;;;;6222796;28;87892;-71
2023/07/01 14:14:46;;;;;;;6.13;5.35;;;24.50;92.20;;;;;;6194186;28;88196;-70
2023/07/01 14:17:50;;;;;;;6.68;5.63;;;24.50;92.20;;;;;;6186565;28;88034;-70
2023/07/01 14:20:55;;;;;;;6.55;5.57;;;24.50;92.50;;;;;;6199924;28;88309;-71
2023/07/01 14:24:04;;;;;;;5.45;4.95;;;24.50;92.40;;;;;;6187135;28;87214;-70
2023/07/01 14:27:08;;;;;;;6.28;5.63;;;24.50;92.60;;;;;;6195448;28;87998;-71
2023/07/01 14:30:35;;;;;;;5.50;5.00;;;24.50;92.80;;;;;;6186093;28;87075;-70
2023/07/01 14:33:41;;;;;;;5.40;4.88;;;24.50;92.40;;;;;;6219429;28;88957;-71
2023/07/01 14:36:44;;;;;;;6.72;5.30;;;24.50;92.30;;;;;;6216464;28;88404;-70
2023/07/01 14:39:53;;;;;;;5.63;5.03;;;24.50;92.50;;;;;;6210027;28;88130;-70
2023/07/01 14:43:06;;;;;;;5.55;5.05;;;24.50;92.30;;;;;;6219957;28;87784;-71
2023/07/01 14:46:11;;;;;;;5.97;5.38;;;24.50;92.20;;;;;;6215711;28;88197;-71
2023/07/01 14:49:14;;;;;;;5.50;5.00;;;24.50;92.20;;;;;;6197308;28;88045;-70
2023/07/01 14:52:17;;;;;;;5.53;5.03;;;24.50;92.20;;;;;;6218143;28;88097;-71
2023/07/01 14:55:21;;;;;;;5.55;5.05;;;24.50;92.10;;;;;;6202244;28;87592;-71
2023/07/01 14:58:24;;;;;;;5.78;5.18;;;24.50;92.00;;;;;;6190353;28;88144;-72
2023/07/01 15:01:29;;;;;;;5.75;5.25;;;24.50;92.20;;;;;;6195710;28;88027;-71
2023/07/01 15:04:33;;;;;;;5.55;4.97;;;24.50;92.10;;;;;;6207224;28;88952;-71
2023/07/01 15:07:36;;;;;;;5.80;5.28;;;24.50;92.10;;;;;;6210449;28;87798;-71
2023/07/01 15:10:39;;;;;;;5.68;5.18;;;24.50;92.20;;;;;;6196460;28;88075;-71
2023/07/01 15:13:41;;;;;;;5.57;5.07;;;24.50;92.20;;;;;;6215848;28;89558;-70
2023/07/01 15:16:44;;;;;;;5.28;4.78;;;24.50;92.30;;;;;;6192275;28;89072;-70
2023/07/01 15:19:46;;;;;;;5.50;5.00;;;24.50;92.40;;;;;;6195024;28;89351;-71
2023/07/01 15:22:48;;;;;;;5.47;4.97;;;24.50;92.40;;;;;;6206048;28;89229;-71
2023/07/01 15:25:50;;;;;;;6.13;5.10;;;24.50;92.40;;;;;;6198495;28;88689;-68
2023/07/01 15:28:52;;;;;;;5.57;5.07;;;24.50;92.40;;;;;;6209110;28;87935;-70
2023/07/01 15:31:55;;;;;;;5.97;4.90;;;24.50;92.40;;;;;;6199002;28;89834;-70
2023/07/01 15:34:58;;;;;;;5.38;4.90;;;24.50;92.30;;;;;;6198676;28;90092;-70
2023/07/01 15:38:00;;;;;;;4.93;4.47;;;24.50;92.30;;;;;;6193664;28;89115;-69
2023/07/01 15:41:02;;;;;;;5.55;5.05;;;24.50;92.30;;;;;;6196381;28;89105;-70
2023/07/01 15:44:04;;;;;;;5.95;5.30;;;24.40;92.30;;;;;;6209628;28;89137;-70
2023/07/01 15:47:08;;;;;;;5.15;4.75;;;24.50;92.30;;;;;;6202956;28;89676;-70